createdAt,value
2022-09-27T00:01:10.271Z,58.31
2022-09-27T00:03:37.277Z,58.63
2022-09-27T00:06:06.603Z,58.45
2022-09-27T00:08:34.577Z,58.43
2022-09-27T00:11:07.364Z,57.88
2022-09-27T00:13:34.040Z,58.67
2022-09-27T00:16:02.936Z,58.54
2022-09-27T00:18:29.513Z,58.75
2022-09-27T00:20:56.101Z,58.77
2022-09-27T00:23:22.847Z,58.88
2022-09-27T00:25:57.276Z,58.40
2022-09-27T00:28:24.665Z,59.07
2022-09-27T00:30:51.809Z,59.13
2022-09-27T00:33:18.399Z,59.09
2022-09-27T00:35:46.204Z,59.15
2022-09-27T00:38:13.206Z,59.15
2022-09-27T00:40:40.186Z,59.19
2022-09-27T00:43:16.533Z,59.04
2022-09-27T00:45:45.918Z,59.42
2022-09-27T00:48:16.131Z,59.33
2022-09-27T00:50:48.050Z,59.64
2022-09-27T00:53:30.727Z,59.87
2022-09-27T00:56:01.448Z,60.25
2022-09-27T00:58:32.996Z,60.04
2022-09-27T01:01:05.710Z,60.69
2022-09-27T01:03:51.446Z,60.76
2022-09-27T01:06:20.553Z,60.84
2022-09-27T01:08:48.389Z,60.79
2022-09-27T01:11:46.098Z,61.16
2022-09-27T01:14:28.985Z,61.55
2022-09-27T01:16:58.635Z,61.49
2022-09-27T01:19:57.951Z,61.65
2022-09-27T01:22:37.795Z,61.50
2022-09-27T01:25:33.021Z,62.27
2022-09-27T01:28:05.830Z,62.17
2022-09-27T01:30:56.396Z,62.42
2022-09-27T01:33:43.312Z,62.33
2022-09-27T01:36:53.361Z,62.79
2022-09-27T01:39:47.775Z,62.50
2022-09-27T01:42:53.539Z,62.80
2022-09-27T01:45:36.932Z,62.52
2022-09-27T01:48:21.043Z,62.51
2022-09-27T01:50:57.171Z,62.42
2022-09-27T01:53:37.970Z,62.48
2022-09-27T01:56:35.002Z,62.51
2022-09-27T01:59:24.454Z,62.95
2022-09-27T02:02:05.134Z,62.82
2022-09-27T02:04:56.805Z,62.83
2022-09-27T02:07:28.574Z,62.83
2022-09-27T02:10:02.372Z,63.07
2022-09-27T02:12:52.143Z,63.40
2022-09-27T02:15:19.421Z,62.86
2022-09-27T02:18:15.924Z,63.19
2022-09-27T02:20:51.285Z,62.93
2022-09-27T02:23:23.273Z,62.54
2022-09-27T02:26:01.598Z,62.18
2022-09-27T02:28:42.508Z,62.49
2022-09-27T02:31:11.438Z,62.06
2022-09-27T02:34:11.301Z,62.66
2022-09-27T02:36:38.383Z,62.37
2022-09-27T02:39:05.164Z,62.39
2022-09-27T02:41:33.180Z,62.73
2022-09-27T02:44:04.690Z,63.21
2022-09-27T02:46:48.059Z,63.20
2022-09-27T02:49:30.041Z,63.80
2022-09-27T02:52:26.506Z,64.82
2022-09-27T02:55:15.020Z,64.30
2022-09-27T02:58:01.220Z,64.44
2022-09-27T03:00:44.341Z,64.82
2022-09-27T03:04:07.773Z,65.14
2022-09-27T03:06:35.973Z,64.43
2022-09-27T03:09:02.463Z,65.21
2022-09-27T03:11:29.226Z,64.30
2022-09-27T03:14:08.003Z,64.27
2022-09-27T03:16:38.960Z,64.21
2022-09-27T03:19:34.626Z,64.09
2022-09-27T03:22:21.166Z,64.01
2022-09-27T03:24:47.890Z,64.01
2022-09-27T03:27:14.495Z,63.94
2022-09-27T03:29:41.172Z,64.00
2022-09-27T03:32:09.247Z,63.84
2022-09-27T03:35:01.845Z,63.80
2022-09-27T03:37:28.591Z,63.79
2022-09-27T03:39:55.474Z,63.89
2022-09-27T03:42:21.988Z,64.04
2022-09-27T03:44:51.288Z,64.33
2022-09-27T03:47:17.849Z,64.12
2022-09-27T03:49:44.645Z,64.29
2022-09-27T03:52:11.212Z,64.34
2022-09-27T03:54:37.764Z,64.50
2022-09-27T03:57:04.420Z,64.42
2022-09-27T03:59:32.100Z,64.48
2022-09-27T04:02:18.710Z,64.47
2022-09-27T04:05:11.756Z,64.30
2022-09-27T04:07:38.352Z,64.27
2022-09-27T04:10:06.246Z,64.33
2022-09-27T04:12:34.789Z,64.58
2022-09-27T04:15:01.327Z,64.59
2022-09-27T04:17:46.031Z,64.70
2022-09-27T04:20:41.776Z,64.83
2022-09-27T04:23:12.386Z,64.80
2022-09-27T04:25:43.458Z,64.96
2022-09-27T04:28:30.371Z,64.93
2022-09-27T04:30:57.823Z,64.83
2022-09-27T04:33:47.764Z,64.87
2022-09-27T04:36:24.135Z,65.10
2022-09-27T04:39:02.884Z,64.95
2022-09-27T04:41:30.814Z,64.93
2022-09-27T04:43:59.517Z,65.04
2022-09-27T04:46:27.509Z,64.99
2022-09-27T04:48:54.104Z,64.94
2022-09-27T04:51:20.867Z,65.14
2022-09-27T04:53:47.689Z,65.28
2022-09-27T04:56:15.261Z,65.32
2022-09-27T04:58:42.091Z,65.19
2022-09-27T05:01:09.312Z,65.25
2022-09-27T05:03:54.751Z,65.09
2022-09-27T05:06:21.537Z,64.94
2022-09-27T05:08:48.091Z,64.97
2022-09-27T05:11:17.500Z,64.69
2022-09-27T05:14:05.088Z,64.63
2022-09-27T05:16:39.293Z,64.71
2022-09-27T05:19:34.803Z,64.68
2022-09-27T05:22:12.043Z,64.91
2022-09-27T05:24:38.581Z,64.81
2022-09-27T05:27:06.197Z,65.01
2022-09-27T05:29:32.889Z,65.06
2022-09-27T05:32:06.628Z,65.08
2022-09-27T05:34:33.207Z,65.21
2022-09-27T05:37:00.362Z,65.33
2022-09-27T05:39:30.141Z,65.22
2022-09-27T05:41:56.901Z,64.94
2022-09-27T05:44:24.047Z,64.83
2022-09-27T05:46:57.260Z,64.63
2022-09-27T05:49:23.921Z,64.63
2022-09-27T05:51:50.522Z,64.68
2022-09-27T05:54:17.132Z,64.53
2022-09-27T05:56:43.772Z,64.70
2022-09-27T05:59:36.554Z,64.70
2022-09-27T06:02:21.499Z,64.65
2022-09-27T06:05:07.255Z,64.75
2022-09-27T06:08:08.098Z,64.65
2022-09-27T06:10:41.087Z,64.73
2022-09-27T06:13:12.173Z,64.95
2022-09-27T06:15:43.484Z,64.90
2022-09-27T06:18:15.607Z,64.45
2022-09-27T06:20:44.336Z,64.67
2022-09-27T06:23:19.976Z,63.47
2022-09-27T06:25:49.402Z,64.41
2022-09-27T06:28:22.284Z,64.30
2022-09-27T06:30:52.642Z,64.22
2022-09-27T06:33:38.630Z,64.22
2022-09-27T06:36:07.262Z,64.05
2022-09-27T06:38:36.134Z,64.11
2022-09-27T06:41:11.368Z,64.09
2022-09-27T06:43:49.322Z,64.25
2022-09-27T06:46:34.310Z,64.09
2022-09-27T06:49:09.374Z,64.00
2022-09-27T06:51:36.021Z,63.97
2022-09-27T06:54:02.754Z,63.98
2022-09-27T06:56:29.389Z,63.75
2022-09-27T06:58:55.903Z,63.92
2022-09-27T07:01:44.413Z,63.88
2022-09-27T07:04:26.417Z,64.03
2022-09-27T07:07:13.506Z,64.25
2022-09-27T07:09:48.108Z,64.40
2022-09-27T07:12:14.783Z,64.60
2022-09-27T07:14:42.342Z,64.56
2022-09-27T07:17:12.914Z,64.51
2022-09-27T07:19:43.398Z,64.31
2022-09-27T07:22:11.075Z,64.26
2022-09-27T07:24:38.409Z,64.29
2022-09-27T07:27:06.009Z,64.40
2022-09-27T07:29:32.786Z,64.49
2022-09-27T07:31:59.884Z,64.42
2022-09-27T07:34:27.648Z,64.34
2022-09-27T07:36:59.278Z,63.68
2022-09-27T07:39:27.141Z,64.09
2022-09-27T07:41:53.676Z,63.71
2022-09-27T07:44:21.414Z,63.66
2022-09-27T07:47:10.578Z,63.16
2022-09-27T07:50:22.752Z,62.90
2022-09-27T07:53:13.206Z,62.54
2022-09-27T07:56:10.729Z,62.55
2022-09-27T07:58:57.578Z,62.72
2022-09-27T08:01:44.185Z,62.75
2022-09-27T08:04:30.858Z,62.84
2022-09-27T08:07:17.527Z,63.09
2022-09-27T08:10:08.831Z,63.60
2022-09-27T08:12:57.519Z,62.27
2022-09-27T08:15:44.130Z,62.17
2022-09-27T08:18:30.744Z,61.22
2022-09-27T08:21:32.678Z,60.10
2022-09-27T08:24:31.768Z,60.12
2022-09-27T08:27:25.344Z,59.55
2022-09-27T08:30:13.883Z,58.40
2022-09-27T08:33:02.171Z,58.33
2022-09-27T08:35:50.611Z,58.68
2022-09-27T08:38:37.258Z,57.53
2022-09-27T08:41:38.512Z,58.00
2022-09-27T08:44:59.732Z,58.19
2022-09-27T08:48:00.432Z,58.51
2022-09-27T08:50:48.608Z,58.95
2022-09-27T08:53:49.755Z,60.08
2022-09-27T08:56:37.588Z,60.94
2022-09-27T08:59:30.033Z,62.20
2022-09-27T09:02:22.816Z,61.62
2022-09-27T09:05:19.175Z,62.04
2022-09-27T09:08:18.435Z,62.35
2022-09-27T09:11:21.994Z,62.92
2022-09-27T09:14:54.476Z,63.50
2022-09-27T09:18:24.009Z,64.34
2022-09-27T09:21:49.222Z,64.38
2022-09-27T09:24:35.815Z,64.91
2022-09-27T09:27:31.194Z,64.50
2022-09-27T09:30:23.263Z,64.35
2022-09-27T09:33:25.600Z,62.81
2022-09-27T09:36:37.992Z,62.52
2022-09-27T09:39:33.083Z,62.96
2022-09-27T09:42:29.033Z,62.78
2022-09-27T09:45:21.104Z,62.82
2022-09-27T09:48:18.411Z,63.42
2022-09-27T09:51:11.009Z,63.22
2022-09-27T09:54:04.322Z,63.06
2022-09-27T09:57:15.361Z,61.35
2022-09-27T10:00:12.795Z,62.25
2022-09-27T10:03:03.675Z,62.18
2022-09-27T10:06:06.724Z,61.11
2022-09-27T10:09:05.718Z,61.16
2022-09-27T10:12:00.211Z,60.91
2022-09-27T10:14:52.410Z,60.38
2022-09-27T10:17:49.749Z,59.42
2022-09-27T10:20:44.331Z,59.75
2022-09-27T10:23:32.130Z,59.83
2022-09-27T10:26:38.453Z,59.73
2022-09-27T10:29:37.644Z,60.63
2022-09-27T10:32:33.341Z,61.06
2022-09-27T10:35:47.948Z,61.77
2022-09-27T10:38:52.578Z,61.13
2022-09-27T10:41:46.479Z,62.16
2022-09-27T10:44:39.897Z,62.93
2022-09-27T10:47:39.455Z,63.67
2022-09-27T10:50:59.243Z,63.31
2022-09-27T10:53:57.935Z,63.22
2022-09-27T10:57:05.606Z,62.75
2022-09-27T10:59:56.789Z,62.47
2022-09-27T11:02:43.610Z,63.77
2022-09-27T11:05:38.700Z,63.73
2022-09-27T11:08:31.389Z,62.82
2022-09-27T11:11:27.276Z,63.13
2022-09-27T11:14:23.136Z,63.98
2022-09-27T11:17:15.592Z,64.12
2022-09-27T11:20:19.159Z,65.34
2022-09-27T11:23:19.846Z,65.64
2022-09-27T11:26:36.667Z,65.42
2022-09-27T11:29:36.277Z,63.10
2022-09-27T11:33:07.298Z,62.00
2022-09-27T11:36:28.639Z,62.58
2022-09-27T11:39:23.380Z,62.55
2022-09-27T11:42:39.140Z,58.78
2022-09-27T11:49:19.739Z,59.01
2022-09-27T11:52:20.858Z,58.49
2022-09-27T11:55:14.364Z,56.43
2022-09-27T11:58:28.947Z,58.29
2022-09-27T12:01:39.628Z,58.48
2022-09-27T12:04:50.667Z,59.03
2022-09-27T12:07:49.412Z,55.33
2022-09-27T12:10:41.904Z,55.86
2022-09-27T12:13:40.396Z,56.78
2022-09-27T12:16:30.468Z,57.33
2022-09-27T12:19:26.904Z,56.40
2022-09-27T12:22:57.532Z,55.00
2022-09-27T12:25:56.273Z,56.85
2022-09-27T12:29:23.328Z,56.29
2022-09-27T12:32:42.783Z,56.63
2022-09-27T12:35:32.652Z,56.60
2022-09-27T12:38:47.170Z,55.62
2022-09-27T12:41:38.726Z,54.56
2022-09-27T12:45:01.727Z,56.59
2022-09-27T12:48:07.013Z,53.41
2022-09-27T12:51:01.969Z,55.36
2022-09-27T12:54:00.763Z,54.87
2022-09-27T12:57:32.821Z,49.17
2022-09-27T13:00:23.740Z,52.92
2022-09-27T13:03:43.377Z,51.05
2022-09-27T13:07:07.245Z,50.93
2022-09-27T13:10:29.594Z,51.55
2022-09-27T13:13:22.787Z,51.81
2022-09-27T13:16:10.375Z,51.71
2022-09-27T13:19:01.720Z,50.86
2022-09-27T13:21:51.262Z,51.28
2022-09-27T13:24:58.036Z,50.39
2022-09-27T13:28:49.371Z,50.54
2022-09-27T13:31:55.085Z,48.12
2022-09-27T13:35:22.559Z,48.91
2022-09-27T13:38:24.436Z,49.69
2022-09-27T13:41:21.268Z,50.04
2022-09-27T13:44:41.567Z,48.38
2022-09-27T13:47:30.154Z,49.40
2022-09-27T13:50:48.536Z,49.06
2022-09-27T13:53:40.171Z,50.17
2022-09-27T13:56:36.319Z,51.36
2022-09-27T13:59:30.610Z,52.36
2022-09-27T14:02:49.735Z,50.76
2022-09-27T14:05:51.504Z,51.16
2022-09-27T14:09:04.313Z,51.43
2022-09-27T14:11:56.792Z,52.14
2022-09-27T14:14:43.946Z,52.89
2022-09-27T14:17:31.840Z,53.15
2022-09-27T14:20:37.135Z,54.47
2022-09-27T14:23:26.259Z,54.61
2022-09-27T14:26:23.405Z,54.96
2022-09-27T14:29:21.038Z,55.56
2022-09-27T14:32:13.547Z,54.80
2022-09-27T14:35:15.210Z,55.49
2022-09-27T14:38:26.374Z,55.74
2022-09-27T14:41:13.803Z,56.03
2022-09-27T14:44:01.133Z,56.25
2022-09-27T14:46:48.075Z,56.95
2022-09-27T14:49:34.616Z,57.16
2022-09-27T14:52:40.683Z,56.59
2022-09-27T14:55:29.995Z,56.24
2022-09-27T14:58:35.986Z,55.48
2022-09-27T15:01:23.116Z,55.48
2022-09-27T15:04:15.166Z,54.80
2022-09-27T15:07:03.057Z,55.29
2022-09-27T15:09:49.898Z,55.30
2022-09-27T15:12:36.734Z,55.48
2022-09-27T15:15:27.091Z,55.29
2022-09-27T15:18:28.498Z,54.93
2022-09-27T15:21:28.648Z,55.19
2022-09-27T15:24:38.205Z,54.95
2022-09-27T15:27:26.155Z,56.16
2022-09-27T15:30:18.154Z,55.94
2022-09-27T15:33:06.532Z,56.36
2022-09-27T15:35:57.588Z,55.85
2022-09-27T15:38:45.188Z,56.04
2022-09-27T15:42:02.514Z,54.93
2022-09-27T15:44:53.926Z,55.43
2022-09-27T15:47:42.555Z,55.99
2022-09-27T15:50:29.054Z,56.16
2022-09-27T15:53:33.930Z,55.97
2022-09-27T15:56:20.456Z,56.33
2022-09-27T15:59:17.156Z,55.98
2022-09-27T16:02:12.809Z,55.16
2022-09-27T16:04:59.430Z,55.10
2022-09-27T16:07:45.981Z,55.50
2022-09-27T16:10:41.827Z,54.39
2022-09-27T16:13:32.702Z,54.74
2022-09-27T16:16:21.016Z,54.45
2022-09-27T16:19:07.608Z,54.87
2022-09-27T16:21:54.047Z,54.66
2022-09-27T16:24:43.140Z,54.97
2022-09-27T16:27:29.665Z,55.14
2022-09-27T16:30:17.167Z,54.84
2022-09-27T16:33:03.743Z,54.87
2022-09-27T16:35:55.289Z,54.91
2022-09-27T16:38:55.274Z,54.79
2022-09-27T16:41:41.772Z,54.72
2022-09-27T16:44:35.035Z,54.50
2022-09-27T16:47:35.059Z,54.72
2022-09-27T16:50:21.558Z,54.90
2022-09-27T16:53:14.817Z,55.12
2022-09-27T16:56:14.845Z,55.29
2022-09-27T16:59:03.264Z,54.97
2022-09-27T17:01:54.933Z,55.21
2022-09-27T17:04:54.640Z,55.60
2022-09-27T17:07:41.115Z,55.84
2022-09-27T17:10:34.392Z,55.80
2022-09-27T17:13:34.348Z,55.70
2022-09-27T17:16:21.699Z,55.80
2022-09-27T17:19:15.499Z,55.84
2022-09-27T17:22:14.428Z,56.33
2022-09-27T17:25:00.945Z,56.46
2022-09-27T17:27:54.008Z,57.06
2022-09-27T17:30:53.940Z,57.14
2022-09-27T17:33:45.290Z,57.54
2022-09-27T17:36:34.214Z,57.90
2022-09-27T17:39:33.659Z,58.20
2022-09-27T17:42:20.155Z,58.48
2022-09-27T17:45:13.484Z,59.17
2022-09-27T17:48:13.780Z,59.06
2022-09-27T17:51:00.313Z,59.58
2022-09-27T17:53:53.371Z,59.41
2022-09-27T17:56:53.664Z,59.55
2022-09-27T17:59:40.179Z,59.63
2022-09-27T18:02:33.122Z,59.90
2022-09-27T18:05:33.028Z,60.16
2022-09-27T18:08:19.506Z,60.45
2022-09-27T18:11:18.504Z,60.65
2022-09-27T18:14:13.035Z,60.63
2022-09-27T18:16:59.669Z,60.69
2022-09-27T18:19:52.508Z,60.54
2022-09-27T18:22:52.504Z,60.65
2022-09-27T18:25:39.005Z,61.05
2022-09-27T18:28:32.237Z,60.93
2022-09-27T18:31:32.619Z,61.05
2022-09-27T18:34:19.192Z,60.90
2022-09-27T18:37:12.076Z,60.87
2022-09-27T18:40:12.134Z,60.77
2022-09-27T18:42:58.634Z,60.94
2022-09-27T18:45:51.840Z,60.86
2022-09-27T18:48:52.440Z,60.86
2022-09-27T18:51:40.431Z,61.07
2022-09-27T18:54:31.578Z,60.94
2022-09-27T18:57:31.606Z,61.16
2022-09-27T19:00:18.134Z,61.31
2022-09-27T19:03:14.844Z,61.59
2022-09-27T19:06:19.743Z,61.60
2022-09-27T19:09:07.541Z,61.82
2022-09-27T19:11:54.232Z,61.75
2022-09-27T19:14:51.102Z,61.75
2022-09-27T19:17:37.648Z,61.73
2022-09-27T19:20:33.312Z,61.98
2022-09-27T19:23:00.337Z,61.93
2022-09-27T19:25:26.850Z,62.32
2022-09-27T19:27:53.545Z,62.39
2022-09-27T19:30:20.308Z,62.49
2022-09-27T19:32:47.090Z,62.44
2022-09-27T19:35:13.845Z,62.53
2022-09-27T19:37:40.797Z,62.45
2022-09-27T19:40:07.694Z,62.62
2022-09-27T19:42:34.158Z,62.66
2022-09-27T19:45:00.677Z,62.72
2022-09-27T19:47:27.216Z,62.88
2022-09-27T19:49:53.807Z,62.90
2022-09-27T19:52:20.300Z,62.85
2022-09-27T19:54:46.852Z,62.74
2022-09-27T19:57:13.444Z,62.62
2022-09-27T19:59:39.912Z,62.66
2022-09-27T20:02:06.828Z,62.59
2022-09-27T20:04:33.409Z,62.62
2022-09-27T20:06:59.859Z,62.61
2022-09-27T20:09:26.371Z,62.68
2022-09-27T20:11:52.949Z,62.63
2022-09-27T20:14:19.485Z,62.54
2022-09-27T20:16:46.055Z,62.71
2022-09-27T20:19:12.658Z,62.80
2022-09-27T20:21:39.343Z,62.76
2022-09-27T20:24:06.031Z,62.64
2022-09-27T20:26:33.815Z,62.64
2022-09-27T20:29:01.893Z,62.64
2022-09-27T20:31:31.094Z,62.71
2022-09-27T20:33:57.640Z,62.76
2022-09-27T20:36:29.577Z,62.65
2022-09-27T20:39:02.476Z,62.58
2022-09-27T20:41:32.013Z,62.38
2022-09-27T20:44:00.871Z,62.42
2022-09-27T20:46:27.576Z,62.43
2022-09-27T20:48:57.066Z,62.35
2022-09-27T20:51:24.468Z,62.24
2022-09-27T20:53:51.676Z,62.42
2022-09-27T20:56:30.569Z,62.04
2022-09-27T20:58:59.016Z,62.49
2022-09-27T21:01:27.272Z,62.40
2022-09-27T21:03:55.742Z,62.38
2022-09-27T21:06:22.725Z,62.44
2022-09-27T21:08:50.863Z,62.24
2022-09-27T21:11:18.110Z,61.76
2022-09-27T21:13:46.001Z,62.20
2022-09-27T21:16:23.717Z,61.94
2022-09-27T21:18:52.224Z,62.24
2022-09-27T21:21:19.824Z,62.29
2022-09-27T21:23:47.544Z,62.24
2022-09-27T21:26:16.682Z,62.51
2022-09-27T21:28:45.023Z,62.67
2022-09-27T21:31:22.294Z,63.17
2022-09-27T21:33:52.078Z,62.90
2022-09-27T21:36:19.008Z,63.10
2022-09-27T21:38:45.524Z,63.15
2022-09-27T21:41:15.723Z,63.94
2022-09-27T21:43:43.937Z,63.35
2022-09-27T21:46:20.278Z,64.50
2022-09-27T21:48:48.828Z,63.77
2022-09-27T21:51:19.203Z,63.59
2022-09-27T21:53:53.834Z,63.83
2022-09-27T21:56:21.595Z,63.67
2022-09-27T21:58:48.942Z,63.65
2022-09-27T22:01:17.205Z,63.85
2022-09-27T22:03:44.583Z,63.77
2022-09-27T22:06:17.851Z,64.01
2022-09-27T22:08:45.441Z,63.99
2022-09-27T22:11:21.018Z,63.94
2022-09-27T22:13:47.552Z,63.67
2022-09-27T22:16:16.512Z,63.76
2022-09-27T22:18:44.850Z,63.85
2022-09-27T22:21:14.232Z,63.80
2022-09-27T22:23:40.792Z,64.02
2022-09-27T22:26:16.250Z,64.17
2022-09-27T22:28:44.155Z,64.08
2022-09-27T22:31:12.149Z,64.34
2022-09-27T22:33:38.667Z,64.40
2022-09-27T22:36:05.680Z,64.33
2022-09-27T22:38:32.876Z,64.32
2022-09-27T22:41:01.799Z,64.20
2022-09-27T22:43:28.681Z,64.24
2022-09-27T22:45:56.290Z,64.45
2022-09-27T22:48:23.282Z,64.41
2022-09-27T22:50:49.810Z,64.63
2022-09-27T22:53:16.341Z,64.66
2022-09-27T22:55:42.810Z,64.75
2022-09-27T22:58:09.369Z,64.73
2022-09-27T23:00:37.988Z,64.84
2022-09-27T23:03:04.504Z,64.89
2022-09-27T23:05:31.063Z,64.84
2022-09-27T23:07:57.600Z,64.85
2022-09-27T23:10:24.060Z,65.12
2022-09-27T23:12:54.029Z,65.68
2022-09-27T23:15:20.612Z,65.31
2022-09-27T23:17:50.926Z,65.28
2022-09-27T23:20:17.799Z,65.19
2022-09-27T23:22:45.185Z,65.08
2022-09-27T23:25:11.658Z,64.83
2022-09-27T23:27:38.162Z,64.48
2022-09-27T23:30:05.117Z,64.41
2022-09-27T23:32:31.999Z,64.36
2022-09-27T23:34:58.634Z,64.49
2022-09-27T23:37:25.157Z,64.52
2022-09-27T23:39:51.662Z,64.56
2022-09-27T23:42:18.231Z,64.70
2022-09-27T23:44:44.847Z,64.75
2022-09-27T23:47:11.541Z,64.95
2022-09-27T23:49:38.000Z,65.01
2022-09-27T23:52:05.332Z,65.15
2022-09-27T23:54:32.573Z,65.21
2022-09-27T23:56:59.258Z,65.42
2022-09-27T23:59:25.741Z,65.60
